createdAt,value
2018-02-10T00:02:22.656Z,92.13
2018-02-10T00:04:50.241Z,94.53
2018-02-10T00:07:17.833Z,95.47
2018-02-10T00:09:45.381Z,94.67
2018-02-10T00:12:12.978Z,88.70
2018-02-10T00:14:40.570Z,90.03
2018-02-10T00:17:08.630Z,85.38
2018-02-10T00:19:36.581Z,80.17
2018-02-10T00:22:04.202Z,98.07
2018-02-10T00:24:31.744Z,76.62
2018-02-10T00:26:59.369Z,84.43
2018-02-10T00:29:27.992Z,84.47
2018-02-10T00:31:55.636Z,90.43
2018-02-10T00:34:23.615Z,81.87
2018-02-10T00:36:51.612Z,78.07
2018-02-10T00:39:19.173Z,84.77
2018-02-10T00:41:46.777Z,79.47
2018-02-10T00:44:14.389Z,95.27
2018-02-10T00:46:42.058Z,83.53
2018-02-10T00:49:09.610Z,85.27
2018-02-10T00:51:37.180Z,84.73
2018-02-10T00:54:04.755Z,76.77
2018-02-10T00:56:32.405Z,85.90
2018-02-10T00:58:59.989Z,83.93
2018-02-10T01:01:27.589Z,85.80
2018-02-10T01:03:55.136Z,80.22
2018-02-10T01:06:23.137Z,81.55
2018-02-10T01:08:50.703Z,88.80
2018-02-10T01:11:18.313Z,86.25
2018-02-10T01:13:45.917Z,71.90
2018-02-10T01:16:13.527Z,82.10
2018-02-10T01:18:41.082Z,77.33
2018-02-10T01:21:08.662Z,83.57
2018-02-10T01:23:36.970Z,76.30
2018-02-10T01:26:04.640Z,79.80
2018-02-10T01:28:32.248Z,75.77
2018-02-10T01:30:59.792Z,86.30
2018-02-10T01:33:27.399Z,74.57
2018-02-10T01:35:55.009Z,81.55
2018-02-10T01:38:22.564Z,85.37
2018-02-10T01:40:50.152Z,137.97
2018-02-10T01:43:17.751Z,209.87
2018-02-10T01:45:45.301Z,145.27
2018-02-10T01:48:12.907Z,109.23
2018-02-10T01:50:40.436Z,112.97
2018-02-10T01:53:08.005Z,105.20
2018-02-10T01:55:35.620Z,107.57
2018-02-10T01:58:03.209Z,85.00
2018-02-10T02:00:30.815Z,88.37
2018-02-10T02:02:58.412Z,79.97
2018-02-10T02:05:26.352Z,95.60
2018-02-10T02:07:53.911Z,74.47
2018-02-10T02:10:22.300Z,103.87
2018-02-10T02:12:49.992Z,84.13
2018-02-10T02:15:17.644Z,88.10
2018-02-10T02:17:45.622Z,92.47
2018-02-10T02:20:13.582Z,81.87
2018-02-10T02:22:41.191Z,85.57
2018-02-10T02:25:08.768Z,77.97
2018-02-10T02:27:36.360Z,92.23
2018-02-10T02:30:04.353Z,76.63
2018-02-10T02:32:31.935Z,78.17
2018-02-10T02:34:59.572Z,78.70
2018-02-10T02:37:27.124Z,97.97
2018-02-10T02:39:54.720Z,85.35
2018-02-10T02:42:22.309Z,84.00
2018-02-10T02:44:49.897Z,80.63
2018-02-10T02:47:17.428Z,86.57
2018-02-10T02:49:45.009Z,97.97
2018-02-10T02:52:12.984Z,90.60
2018-02-10T02:54:40.566Z,87.60
2018-02-10T02:57:09.036Z,89.07
2018-02-10T02:59:36.623Z,79.13
2018-02-10T03:02:04.205Z,85.73
2018-02-10T03:04:31.842Z,91.17
2018-02-10T03:06:59.461Z,89.73
2018-02-10T03:09:27.083Z,92.00
2018-02-10T03:11:54.628Z,82.43
2018-02-10T03:14:22.231Z,86.70
2018-02-10T03:16:49.773Z,89.57
2018-02-10T03:19:17.374Z,85.70
2018-02-10T03:21:46.279Z,79.37
2018-02-10T03:24:14.179Z,76.87
2018-02-10T03:26:41.740Z,71.03
2018-02-10T03:29:09.314Z,79.47
2018-02-10T03:31:36.880Z,80.33
2018-02-10T03:34:04.422Z,77.87
2018-02-10T03:36:31.990Z,74.97
2018-02-10T03:38:59.541Z,77.23
2018-02-10T03:41:27.152Z,89.20
2018-02-10T03:43:54.708Z,78.68
2018-02-10T03:46:22.265Z,81.47
2018-02-10T03:48:49.898Z,69.43
2018-02-10T03:51:17.564Z,83.97
2018-02-10T03:53:45.741Z,75.00
2018-02-10T03:56:13.325Z,85.10
2018-02-10T03:58:40.889Z,80.00
2018-02-10T04:01:08.439Z,77.90
2018-02-10T04:03:41.157Z,77.67
2018-02-10T04:06:09.201Z,69.80
2018-02-10T04:08:36.784Z,85.60
2018-02-10T04:11:04.392Z,87.40
2018-02-10T04:13:31.949Z,79.53
2018-02-10T04:15:59.892Z,86.93
2018-02-10T04:18:27.879Z,83.77
2018-02-10T04:20:55.466Z,72.73
2018-02-10T04:23:23.460Z,96.97
2018-02-10T04:25:51.040Z,79.80
2018-02-10T04:28:18.631Z,80.17
2018-02-10T04:30:46.217Z,75.50
2018-02-10T04:33:13.780Z,82.10
2018-02-10T04:35:41.349Z,77.07
2018-02-10T04:38:08.940Z,74.32
2018-02-10T04:40:36.488Z,80.27
2018-02-10T04:43:04.118Z,73.40
2018-02-10T04:45:31.665Z,76.13
2018-02-10T04:47:59.248Z,76.93
2018-02-10T04:50:27.759Z,81.45
2018-02-10T04:52:55.724Z,75.83
2018-02-10T04:55:23.262Z,81.07
2018-02-10T04:57:50.814Z,86.32
2018-02-10T05:00:18.360Z,84.33
2018-02-10T05:02:45.934Z,80.60
2018-02-10T05:05:13.518Z,78.83
2018-02-10T05:07:41.100Z,84.95
2018-02-10T05:10:08.654Z,88.33
2018-02-10T05:12:36.248Z,91.17
2018-02-10T05:15:03.803Z,77.25
2018-02-10T05:17:31.768Z,83.70
2018-02-10T05:19:59.341Z,83.50
2018-02-10T05:22:26.932Z,88.03
2018-02-10T05:24:54.623Z,78.93
2018-02-10T05:27:22.182Z,83.93
2018-02-10T05:29:49.718Z,82.78
2018-02-10T05:32:17.324Z,86.97
2018-02-10T05:34:44.889Z,77.37
2018-02-10T05:37:12.476Z,100.27
2018-02-10T05:39:40.010Z,89.17
2018-02-10T05:42:07.612Z,113.00
2018-02-10T05:44:35.179Z,90.75
2018-02-10T05:47:02.705Z,89.95
2018-02-10T05:49:30.650Z,74.17
2018-02-10T05:51:58.224Z,84.63
2018-02-10T05:54:26.181Z,79.20
2018-02-10T05:56:53.766Z,89.25
2018-02-10T05:59:21.711Z,92.33
2018-02-10T06:01:49.280Z,81.50
2018-02-10T06:04:17.315Z,91.97
2018-02-10T06:06:44.855Z,75.43
2018-02-10T06:09:12.412Z,78.30
2018-02-10T06:11:39.974Z,81.47
2018-02-10T06:14:07.535Z,80.67
2018-02-10T06:16:35.104Z,82.87
2018-02-10T06:19:02.643Z,81.20
2018-02-10T06:21:30.195Z,78.90
2018-02-10T06:23:57.733Z,84.87
2018-02-10T06:26:25.690Z,86.03
2018-02-10T06:28:53.225Z,77.77
2018-02-10T06:31:20.786Z,79.15
2018-02-10T06:33:48.363Z,79.77
2018-02-10T06:36:15.946Z,75.90
2018-02-10T06:38:43.519Z,86.32
2018-02-10T06:41:11.049Z,80.80
2018-02-10T06:43:38.688Z,83.83
2018-02-10T06:46:06.270Z,78.20
2018-02-10T06:48:33.797Z,78.65
2018-02-10T06:51:01.797Z,100.93
2018-02-10T06:53:29.757Z,91.73
2018-02-10T06:55:57.616Z,82.30
2018-02-10T06:58:25.177Z,79.37
2018-02-10T07:00:52.766Z,78.28
2018-02-10T07:03:20.317Z,84.20
2018-02-10T07:05:47.926Z,82.87
2018-02-10T07:08:15.468Z,91.57
2018-02-10T07:10:43.048Z,82.97
2018-02-10T07:13:10.601Z,74.78
2018-02-10T07:15:38.192Z,73.27
2018-02-10T07:18:05.754Z,67.45
2018-02-10T07:20:33.350Z,88.00
2018-02-10T07:23:01.633Z,75.67
2018-02-10T07:25:29.248Z,79.53
2018-02-10T07:27:56.801Z,70.15
2018-02-10T07:30:24.381Z,76.97
2018-02-10T07:32:52.158Z,66.10
2018-02-10T07:35:19.811Z,70.18
2018-02-10T07:37:47.897Z,85.70
2018-02-10T07:40:15.853Z,74.10
2018-02-10T07:42:43.840Z,69.33
2018-02-10T07:45:15.125Z,74.80
2018-02-10T07:47:47.746Z,71.17
2018-02-10T07:50:16.604Z,68.60
2018-02-10T07:52:45.462Z,76.80
2018-02-10T07:55:17.388Z,78.37
2018-02-10T07:57:49.811Z,73.00
2018-02-10T08:02:50.501Z,73.37
2018-02-10T08:05:18.494Z,77.07
2018-02-10T08:07:46.111Z,79.80
2018-02-10T08:10:14.153Z,67.67
2018-02-10T08:12:43.031Z,66.17
2018-02-10T08:15:14.290Z,74.85
2018-02-10T08:17:42.224Z,75.65
2018-02-10T08:20:10.522Z,82.57
2018-02-10T08:22:38.179Z,70.70
2018-02-10T08:25:06.117Z,67.97
2018-02-10T08:27:34.453Z,67.35
2018-02-10T08:30:02.024Z,65.57
2018-02-10T08:32:29.604Z,74.97
2018-02-10T08:34:57.326Z,78.37
2018-02-10T08:37:24.873Z,70.63
2018-02-10T08:39:52.424Z,63.08
2018-02-10T08:42:19.998Z,67.23
2018-02-10T08:44:47.560Z,67.43
2018-02-10T08:47:15.093Z,73.25
2018-02-10T08:49:43.075Z,72.03
2018-02-10T08:52:10.654Z,77.20
2018-02-10T08:54:38.211Z,69.80
2018-02-10T08:57:05.773Z,71.80
2018-02-10T08:59:33.331Z,69.80
2018-02-10T09:02:00.931Z,65.87
2018-02-10T09:04:28.508Z,70.83
2018-02-10T09:06:56.065Z,70.33
2018-02-10T09:09:24.006Z,66.30
2018-02-10T09:11:51.577Z,56.75
2018-02-10T09:14:20.167Z,70.70
2018-02-10T09:16:47.804Z,73.15
2018-02-10T09:19:15.412Z,69.77
2018-02-10T09:21:43.014Z,54.13
2018-02-10T09:24:10.567Z,61.40
2018-02-10T09:26:38.218Z,77.78
2018-02-10T09:29:05.787Z,65.40
2018-02-10T09:31:33.621Z,59.33
2018-02-10T09:34:01.586Z,59.28
2018-02-10T09:36:29.581Z,63.50
2018-02-10T09:38:57.108Z,56.17
2018-02-10T09:41:24.716Z,58.27
2018-02-10T09:43:52.281Z,52.15
2018-02-10T09:46:19.963Z,48.37
2018-02-10T09:48:47.565Z,45.77
2018-02-10T09:51:15.522Z,57.30
2018-02-10T09:53:43.478Z,51.03
2018-02-10T09:56:11.060Z,42.23
2018-02-10T09:58:38.676Z,47.90
2018-02-10T10:01:06.207Z,46.57
2018-02-10T10:03:33.786Z,42.80
2018-02-10T10:06:01.324Z,46.28
2018-02-10T10:08:30.714Z,40.83
2018-02-10T10:10:58.290Z,41.97
2018-02-10T10:13:25.813Z,54.03
2018-02-10T10:15:53.381Z,44.73
2018-02-10T10:18:20.952Z,41.63
2018-02-10T10:20:48.520Z,49.50
2018-02-10T10:23:16.101Z,52.90
2018-02-10T10:25:44.605Z,44.50
2018-02-10T10:28:12.186Z,47.37
2018-02-10T10:30:40.130Z,49.25
2018-02-10T10:33:07.712Z,46.80
2018-02-10T10:35:35.649Z,46.27
2018-02-10T10:38:03.201Z,41.07
2018-02-10T10:40:30.836Z,41.35
2018-02-10T10:42:58.387Z,47.37
2018-02-10T10:45:25.930Z,46.40
2018-02-10T10:47:53.478Z,40.78
2018-02-10T10:50:21.487Z,44.57
2018-02-10T11:04:53.130Z,42.58
2018-02-10T11:07:20.684Z,44.47
2018-02-10T11:09:48.252Z,42.00
2018-02-10T11:12:15.805Z,43.73
2018-02-10T11:14:43.429Z,34.57
2018-02-10T11:17:11.606Z,40.90
2018-02-10T11:19:39.183Z,37.67
2018-02-10T11:22:06.775Z,34.17
2018-02-10T11:24:34.316Z,41.73
2018-02-10T11:27:01.866Z,31.27
2018-02-10T11:29:29.419Z,33.90
2018-02-10T11:31:57.052Z,35.77
2018-02-10T11:34:25.014Z,37.57
2018-02-10T11:36:52.581Z,38.70
2018-02-10T11:39:20.531Z,31.60
2018-02-10T11:41:48.085Z,34.40
2018-02-10T11:44:15.690Z,34.47
2018-02-10T11:46:43.309Z,36.60
2018-02-10T11:49:10.901Z,32.37
2018-02-10T11:51:38.877Z,32.80
2018-02-10T11:54:06.422Z,33.57
2018-02-10T11:56:34.455Z,28.63
2018-02-10T11:59:02.753Z,35.47
2018-02-10T12:01:30.306Z,31.20
2018-02-10T12:03:57.926Z,33.57
2018-02-10T12:06:25.513Z,37.00
2018-02-10T12:08:53.154Z,38.30
2018-02-10T12:11:20.818Z,38.38
2018-02-10T12:13:48.358Z,44.23
2018-02-10T12:16:16.031Z,35.30
2018-02-10T12:18:43.585Z,33.97
2018-02-10T12:21:11.202Z,35.40
2018-02-10T12:23:38.840Z,36.58
2018-02-10T12:26:06.554Z,37.92
2018-02-10T12:28:39.450Z,37.53
2018-02-10T12:31:07.067Z,29.37
2018-02-10T12:33:34.620Z,34.03
2018-02-10T12:36:02.223Z,34.27
2018-02-10T12:38:29.781Z,37.42
2018-02-10T12:40:57.381Z,40.10
2018-02-10T12:43:24.968Z,42.60
2018-02-10T12:45:52.548Z,34.67
2018-02-10T12:51:29.973Z,37.00
2018-02-10T12:53:57.562Z,43.20
2018-02-10T12:56:25.305Z,35.53
2018-02-10T12:58:52.971Z,37.37
2018-02-10T13:01:20.640Z,40.83
2018-02-10T13:03:48.206Z,40.10
2018-02-10T13:06:15.831Z,30.10
2018-02-10T13:08:43.394Z,39.47
2018-02-10T13:11:11.340Z,37.60
2018-02-10T13:13:39.346Z,33.53
2018-02-10T13:16:06.915Z,37.17
2018-02-10T13:18:34.469Z,35.43
2018-02-10T13:21:02.096Z,39.70
2018-02-10T13:23:29.697Z,40.80
2018-02-10T13:25:57.301Z,36.97
2018-02-10T13:28:24.877Z,36.67
2018-02-10T13:30:52.901Z,30.30
2018-02-10T13:33:20.455Z,34.10
2018-02-10T13:35:48.021Z,36.70
2018-02-10T13:38:15.603Z,37.13
2018-02-10T13:40:43.208Z,30.77
2018-02-10T13:43:10.805Z,32.90
2018-02-10T13:45:38.356Z,29.20
2018-02-10T13:48:05.988Z,27.23
2018-02-10T13:50:33.504Z,32.10
2018-02-10T13:53:01.089Z,31.37
2018-02-10T13:55:28.629Z,26.98
2018-02-10T13:57:56.264Z,28.07
2018-02-10T14:00:23.773Z,27.45
2018-02-10T14:02:51.333Z,27.53
2018-02-10T14:05:18.938Z,28.33
2018-02-10T14:07:46.527Z,24.73
2018-02-10T14:10:14.100Z,27.90
2018-02-10T14:12:42.081Z,24.67
2018-02-10T14:15:09.674Z,25.17
2018-02-10T14:17:37.267Z,22.83
2018-02-10T14:20:04.917Z,32.83
2018-02-10T14:22:32.493Z,27.77
2018-02-10T14:25:00.044Z,26.33
2018-02-10T14:27:27.637Z,23.00
2018-02-10T14:29:55.897Z,24.37
2018-02-10T14:32:23.856Z,23.37
2018-02-10T14:34:51.421Z,21.53
2018-02-10T14:37:19.029Z,21.47
2018-02-10T14:39:46.616Z,22.83
2018-02-10T14:42:14.182Z,24.57
2018-02-10T14:44:41.800Z,21.53
2018-02-10T14:47:09.351Z,23.07
2018-02-10T14:49:37.031Z,20.73
2018-02-10T14:52:04.602Z,25.50
2018-02-10T14:54:32.197Z,21.30
2018-02-10T14:56:59.760Z,16.45
2018-02-10T14:59:28.355Z,18.12
2018-02-10T15:01:55.948Z,16.83
2018-02-10T15:04:23.566Z,21.77
2018-02-10T15:06:51.135Z,20.13
2018-02-10T15:09:19.160Z,16.40
2018-02-10T15:11:46.717Z,16.20
2018-02-10T15:14:16.837Z,16.50
2018-02-10T15:16:44.389Z,14.40
2018-02-10T15:19:11.972Z,17.10
2018-02-10T15:21:39.646Z,23.25
2018-02-10T15:24:08.520Z,18.30
2018-02-10T15:26:36.212Z,14.30
2018-02-10T15:29:03.815Z,16.20
2018-02-10T15:31:43.383Z,19.20
2018-02-10T15:34:22.882Z,17.83
2018-02-10T15:36:50.450Z,17.42
2018-02-10T15:39:20.581Z,14.43
2018-02-10T15:41:48.173Z,18.73
2018-02-10T15:44:15.747Z,24.03
2018-02-10T15:46:43.337Z,24.03
2018-02-10T15:49:10.891Z,17.62
2018-02-10T15:51:38.510Z,24.90
2018-02-10T15:54:06.082Z,24.67
2018-02-10T15:56:33.649Z,21.93
2018-02-10T15:59:01.224Z,22.33
2018-02-10T16:01:29.219Z,25.33
2018-02-10T16:03:56.789Z,21.40
2018-02-10T16:06:24.361Z,22.70
2018-02-10T16:08:51.982Z,27.50
2018-02-10T16:11:19.537Z,23.95
2018-02-10T16:13:47.101Z,17.17
2018-02-10T16:16:14.666Z,17.23
2018-02-10T16:18:42.287Z,18.43
2018-02-10T16:21:09.879Z,18.80
2018-02-10T16:23:37.825Z,18.10
2018-02-10T16:26:05.369Z,21.35
2018-02-10T16:28:32.957Z,16.10
2018-02-10T16:31:01.447Z,18.60
2018-02-10T16:33:29.022Z,19.87
2018-02-10T16:35:56.609Z,18.80
2018-02-10T16:38:24.197Z,25.80
2018-02-10T16:40:51.788Z,22.87
2018-02-10T16:43:19.329Z,28.37
2018-02-10T16:45:47.468Z,27.03
2018-02-10T16:48:15.049Z,26.58
2018-02-10T16:50:42.614Z,30.17
2018-02-10T16:53:10.559Z,38.37
2018-02-10T16:55:38.120Z,35.33
2018-02-10T16:58:05.682Z,22.87
2018-02-10T17:00:33.249Z,25.30
2018-02-10T17:03:00.832Z,21.57
2018-02-10T17:05:28.804Z,21.17
2018-02-10T17:07:56.363Z,26.80
2018-02-10T17:10:23.918Z,22.77
2018-02-10T17:12:51.874Z,23.10
2018-02-10T17:15:19.884Z,27.93
2018-02-10T17:17:47.439Z,27.00
2018-02-10T17:20:15.013Z,25.77
2018-02-10T17:22:42.594Z,21.83
2018-02-10T17:25:10.179Z,27.13
2018-02-10T17:27:38.149Z,26.08
2018-02-10T17:30:06.111Z,23.90
2018-02-10T17:32:33.733Z,28.33
2018-02-10T18:02:36.088Z,30.48
2018-02-10T18:05:08.725Z,33.50
2018-02-10T18:07:38.613Z,28.73
2018-02-10T18:10:06.343Z,28.63
2018-02-10T18:18:26.309Z,30.60
2018-02-10T18:21:02.933Z,30.83
2018-02-10T18:23:39.225Z,27.85
2018-02-10T18:58:56.768Z,35.10
2018-02-10T19:01:44.861Z,29.40
2018-02-10T19:04:19.884Z,33.70
2018-02-10T19:06:50.713Z,37.75
2018-02-10T19:09:26.306Z,30.94
2018-02-10T19:51:10.251Z,34.00
2018-02-10T19:53:47.560Z,40.47
2018-02-10T19:56:29.906Z,39.45
2018-02-10T19:58:58.796Z,38.00
2018-02-10T20:01:26.541Z,31.20
2018-02-10T20:03:55.620Z,32.33
2018-02-10T20:06:25.049Z,32.13
2018-02-10T20:08:52.813Z,33.20
2018-02-10T20:11:22.098Z,36.83
2018-02-10T20:13:50.222Z,33.33
2018-02-10T20:16:22.928Z,34.10
2018-02-10T20:18:50.954Z,39.13
2018-02-10T20:21:18.629Z,35.30
2018-02-10T20:23:50.688Z,32.20
2018-02-10T20:26:19.685Z,33.00
2018-02-10T20:28:49.491Z,38.70
2018-02-10T20:31:17.095Z,34.63
2018-02-10T20:33:45.105Z,36.03
2018-02-10T20:36:13.533Z,37.22
2018-02-10T20:38:41.556Z,30.30
2018-02-10T20:41:09.127Z,36.00
2018-02-10T20:43:36.814Z,34.03
2018-02-10T20:46:04.846Z,36.17
2018-02-10T20:48:32.493Z,32.60
2018-02-10T20:51:00.163Z,31.27
2018-02-10T20:53:27.765Z,33.92
2018-02-10T20:55:55.463Z,37.63
2018-02-10T20:58:25.661Z,31.47
2018-02-10T21:00:53.669Z,36.80
2018-02-10T21:03:21.246Z,42.15
2018-02-10T21:05:50.285Z,36.70
2018-02-10T21:08:18.430Z,36.22
2018-02-10T21:10:51.862Z,37.30
2018-02-10T21:13:19.878Z,39.40
2018-02-10T21:15:48.259Z,41.80
2018-02-10T21:18:15.999Z,37.10
2018-02-10T21:20:43.625Z,34.53
2018-02-10T21:23:11.191Z,36.87
2018-02-10T21:25:39.260Z,41.63
2018-02-10T21:28:06.996Z,32.90
2018-02-10T21:30:34.612Z,34.70
2018-02-10T21:33:02.500Z,38.93
2018-02-10T21:35:30.106Z,38.10
2018-02-10T21:37:57.749Z,39.03
2018-02-10T21:40:25.892Z,32.47
2018-02-10T21:42:53.560Z,36.53
2018-02-10T21:45:21.145Z,38.87
2018-02-10T21:47:48.774Z,39.47
2018-02-10T21:50:16.337Z,41.63
2018-02-10T21:52:44.074Z,36.13
2018-02-10T21:55:11.681Z,36.30
2018-02-10T21:57:39.241Z,40.10
2018-02-10T22:00:06.966Z,38.30
2018-02-10T22:02:34.565Z,39.87
2018-02-10T22:05:02.108Z,35.40
2018-02-10T22:07:29.863Z,27.70
2018-02-10T22:09:57.532Z,33.80
2018-02-10T22:12:26.214Z,28.70
2018-02-10T22:14:53.781Z,29.23
2018-02-10T22:17:21.369Z,27.80
2018-02-10T22:19:49.319Z,25.77
2018-02-10T22:22:16.900Z,26.30
2018-02-10T22:24:44.456Z,27.43
2018-02-10T22:27:12.055Z,26.70
2018-02-10T22:29:39.669Z,27.05
2018-02-10T22:32:07.328Z,30.53
2018-02-10T22:34:34.971Z,31.50
2018-02-10T22:37:02.566Z,30.23
2018-02-10T22:39:30.242Z,38.35
2018-02-10T22:41:57.876Z,31.30
2018-02-10T22:44:25.405Z,29.43
2018-02-10T22:46:52.988Z,29.63
2018-02-10T22:49:20.572Z,33.30
2018-02-10T22:51:48.209Z,30.53
2018-02-10T22:54:16.567Z,31.17
2018-02-10T22:57:07.553Z,33.78
2018-02-10T22:59:35.248Z,34.67
2018-02-10T23:02:02.892Z,33.97
2018-02-10T23:04:30.514Z,30.73
2018-02-10T23:06:58.519Z,34.10
2018-02-10T23:09:26.262Z,27.77
2018-02-10T23:11:53.882Z,28.00
2018-02-10T23:14:21.583Z,27.80
2018-02-10T23:16:49.204Z,30.30
2018-02-10T23:19:16.922Z,26.00
2018-02-10T23:21:44.511Z,25.77
2018-02-10T23:24:12.139Z,22.63
2018-02-10T23:26:39.797Z,20.73
2018-02-10T23:29:07.387Z,23.03
2018-02-10T23:31:35.674Z,24.03
2018-02-10T23:34:03.506Z,20.17
2018-02-10T23:36:31.200Z,21.40
2018-02-10T23:38:58.817Z,19.52
2018-02-10T23:41:26.635Z,22.23
2018-02-10T23:43:54.173Z,29.02
2018-02-10T23:46:21.754Z,22.50
2018-02-10T23:48:49.321Z,21.60
2018-02-10T23:51:16.922Z,24.63
2018-02-10T23:53:44.467Z,32.30
2018-02-10T23:56:12.075Z,24.83
2018-02-10T23:58:39.668Z,25.27
